createdAt,value
2022-12-25T00:02:03.931Z,89641.91
2022-12-25T00:04:30.928Z,89640.81
2022-12-25T00:06:57.751Z,89639.09
2022-12-25T00:09:24.761Z,89644.78
2022-12-25T00:11:51.601Z,89651.34
2022-12-25T00:14:18.515Z,89658.88
2022-12-25T00:16:45.507Z,89651.34
2022-12-25T00:19:12.430Z,89657.09
2022-12-25T00:21:39.363Z,89653.09
2022-12-25T00:24:06.778Z,89658.25
2022-12-25T00:26:33.628Z,89653.72
2022-12-25T00:29:00.593Z,89647.59
2022-12-25T00:31:28.056Z,89641.19
2022-12-25T00:33:54.938Z,89643.47
2022-12-25T00:36:23.169Z,89655.03
2022-12-25T00:38:50.319Z,89659.50
2022-12-25T00:41:20.287Z,89652.59
2022-12-25T00:43:47.171Z,89653.97
2022-12-25T00:46:14.211Z,89654.56
2022-12-25T00:48:41.463Z,89660.00
2022-12-25T00:51:11.808Z,89650.69
2022-12-25T00:53:39.056Z,89650.59
2022-12-25T00:56:07.415Z,89657.91
2022-12-25T00:58:35.206Z,89643.66
2022-12-25T01:01:02.305Z,89639.44
2022-12-25T01:03:29.555Z,89633.00
2022-12-25T01:06:01.151Z,89626.44
2022-12-25T01:08:30.838Z,89630.78
2022-12-25T01:11:04.100Z,89632.97
2022-12-25T01:13:31.499Z,89635.13
2022-12-25T01:15:58.387Z,89634.75
2022-12-25T01:18:25.748Z,89630.66
2022-12-25T01:20:52.756Z,89630.34
2022-12-25T01:23:19.678Z,89631.34
2022-12-25T01:25:46.587Z,89629.03
2022-12-25T01:28:13.615Z,89630.03
2022-12-25T01:30:40.528Z,89634.97
2022-12-25T01:33:07.477Z,89632.34
2022-12-25T01:35:34.280Z,89625.94
2022-12-25T01:38:01.255Z,89624.97
2022-12-25T01:40:28.296Z,89624.22
2022-12-25T01:42:55.253Z,89637.66
2022-12-25T01:45:28.415Z,89628.91
2022-12-25T01:47:55.236Z,89623.31
2022-12-25T01:50:22.935Z,89636.19
2022-12-25T01:52:51.024Z,89637.59
2022-12-25T01:55:18.350Z,89625.69
2022-12-25T01:57:45.712Z,89625.38
2022-12-25T02:00:13.757Z,89630.38
2022-12-25T02:02:41.626Z,89622.34
2022-12-25T02:05:17.065Z,89629.91
2022-12-25T02:07:44.745Z,89631.63
2022-12-25T02:10:12.143Z,89636.94
2022-12-25T02:12:41.676Z,89632.69
2022-12-25T02:15:12.062Z,89632.44
2022-12-25T02:17:53.211Z,89635.41
2022-12-25T02:20:33.802Z,89634.81
2022-12-25T02:23:25.600Z,89637.19
2022-12-25T02:26:14.692Z,89634.81
2022-12-25T02:29:03.018Z,89637.59
2022-12-25T02:31:44.204Z,89635.41
2022-12-25T02:34:53.271Z,89635.81
2022-12-25T02:37:37.089Z,89631.19
2022-12-25T02:40:10.515Z,89627.50
2022-12-25T02:42:59.362Z,89622.34
2022-12-25T02:45:29.946Z,89633.31
2022-12-25T02:47:57.657Z,89623.50
2022-12-25T02:50:26.445Z,89631.38
2022-12-25T02:52:58.046Z,89628.56
2022-12-25T02:55:32.573Z,89628.41
2022-12-25T02:58:04.643Z,89627.31
2022-12-25T03:00:35.163Z,89626.84
2022-12-25T03:03:05.735Z,89624.03
2022-12-25T03:05:35.629Z,89631.41
2022-12-25T03:08:07.156Z,89627.56
2022-12-25T03:10:37.821Z,89632.72
2022-12-25T03:13:12.757Z,89624.38
2022-12-25T03:15:39.766Z,89635.44
2022-12-25T03:18:12.466Z,89633.47
2022-12-25T03:20:39.514Z,89629.13
2022-12-25T03:23:07.869Z,89634.28
2022-12-25T03:25:34.855Z,89645.97
2022-12-25T03:28:02.984Z,89643.47
2022-12-25T03:30:48.685Z,89642.25
2022-12-25T03:33:48.688Z,89647.66
2022-12-25T03:36:30.607Z,89645.13
2022-12-25T03:38:57.478Z,89656.44
2022-12-25T03:41:43.317Z,89646.44
2022-12-25T03:44:17.943Z,89645.59
2022-12-25T03:46:49.041Z,89651.84
2022-12-25T03:49:25.212Z,89657.09
2022-12-25T03:51:57.333Z,89662.00
2022-12-25T03:54:29.181Z,89661.75
2022-12-25T03:56:57.176Z,89663.44
2022-12-25T03:59:25.222Z,89667.03
2022-12-25T04:01:52.495Z,89671.94
2022-12-25T04:04:19.493Z,89676.88
2022-12-25T04:06:46.406Z,89672.78
2022-12-25T04:09:13.572Z,89678.75
2022-12-25T04:11:40.413Z,89681.69
2022-12-25T04:14:07.342Z,89678.66
2022-12-25T04:16:34.397Z,89671.34
2022-12-25T04:19:01.197Z,89675.16
2022-12-25T04:21:28.197Z,89682.13
2022-12-25T04:23:55.064Z,89679.03
2022-12-25T04:26:22.189Z,89677.69
2022-12-25T04:28:49.072Z,89668.06
2022-12-25T04:31:16.053Z,89666.94
2022-12-25T04:33:42.868Z,89673.69
2022-12-25T04:36:09.782Z,89677.41
2022-12-25T04:38:37.787Z,89673.22
2022-12-25T04:41:05.052Z,89673.16
2022-12-25T04:43:32.187Z,89668.41
2022-12-25T04:46:01.734Z,89667.53
2022-12-25T04:48:31.298Z,89665.47
2022-12-25T04:50:58.481Z,89674.66
2022-12-25T04:53:25.328Z,89673.09
2022-12-25T04:56:01.573Z,89674.34
2022-12-25T04:58:28.615Z,89677.13
2022-12-25T05:01:00.083Z,89679.09
2022-12-25T05:03:27.423Z,89682.00
2022-12-25T05:05:54.366Z,89683.00
2022-12-25T05:08:22.140Z,89688.16
2022-12-25T05:10:49.604Z,89687.59
2022-12-25T05:13:16.605Z,89682.50
2022-12-25T05:15:44.437Z,89693.16
2022-12-25T05:18:11.419Z,89698.38
2022-12-25T05:20:40.225Z,89695.09
2022-12-25T05:23:09.527Z,89701.44
2022-12-25T05:25:39.954Z,89694.53
2022-12-25T05:28:07.656Z,89702.81
2022-12-25T05:30:35.345Z,89702.41
2022-12-25T05:33:03.198Z,89698.34
2022-12-25T05:35:30.202Z,89703.06
2022-12-25T05:37:57.127Z,89702.06
2022-12-25T05:40:24.570Z,89701.03
2022-12-25T05:42:51.552Z,89700.06
2022-12-25T05:45:18.570Z,89711.72
2022-12-25T05:47:45.439Z,89708.28
2022-12-25T05:50:12.429Z,89716.91
2022-12-25T05:52:39.503Z,89716.50
2022-12-25T05:55:06.745Z,89714.84
2022-12-25T05:57:33.713Z,89710.00
2022-12-25T06:00:00.688Z,89708.84
2022-12-25T06:02:28.345Z,89710.38
2022-12-25T06:04:55.464Z,89712.88
2022-12-25T06:07:22.359Z,89726.25
2022-12-25T06:09:49.249Z,89719.97
2022-12-25T06:12:16.248Z,89715.09
2022-12-25T06:14:43.127Z,89712.19
2022-12-25T06:17:10.049Z,89716.63
2022-12-25T06:19:36.953Z,89722.50
2022-12-25T06:22:04.050Z,89717.44
2022-12-25T06:24:31.078Z,89717.75
2022-12-25T06:26:58.026Z,89715.66
2022-12-25T06:29:25.006Z,89720.53
2022-12-25T06:31:52.004Z,89725.91
2022-12-25T06:34:18.957Z,89730.75
2022-12-25T06:36:45.976Z,89743.66
2022-12-25T06:39:12.944Z,89736.91
2022-12-25T06:41:39.916Z,89737.31
2022-12-25T06:44:06.787Z,89737.16
2022-12-25T06:46:33.769Z,89735.16
2022-12-25T06:49:01.225Z,89738.94
2022-12-25T06:51:30.916Z,89740.69
2022-12-25T06:53:59.648Z,89743.31
2022-12-25T06:56:28.497Z,89744.13
2022-12-25T06:59:00.851Z,89742.91
2022-12-25T07:01:35.502Z,89755.59
2022-12-25T07:04:11.529Z,89748.97
2022-12-25T07:06:38.496Z,89750.13
2022-12-25T07:09:05.315Z,89754.94
2022-12-25T07:11:32.825Z,89758.88
2022-12-25T07:13:59.628Z,89761.72
2022-12-25T07:16:26.570Z,89766.63
2022-12-25T07:18:53.518Z,89770.81
2022-12-25T07:21:21.506Z,89771.91
2022-12-25T07:23:50.275Z,89773.69
2022-12-25T07:26:17.507Z,89771.47
2022-12-25T07:28:44.873Z,89779.59
2022-12-25T07:31:15.083Z,89783.69
2022-12-25T07:33:42.480Z,89788.94
2022-12-25T07:36:12.884Z,89791.25
2022-12-25T07:38:44.075Z,89790.25
2022-12-25T07:41:12.274Z,89789.72
2022-12-25T07:43:39.122Z,89791.41
2022-12-25T07:46:06.259Z,89790.56
2022-12-25T07:48:33.354Z,89789.41
2022-12-25T07:51:05.689Z,89794.72
2022-12-25T07:53:33.037Z,89781.72
2022-12-25T07:56:08.573Z,89791.53
2022-12-25T07:58:35.486Z,89790.94
2022-12-25T08:01:27.027Z,89788.09
2022-12-25T08:03:57.549Z,89781.94
2022-12-25T08:06:27.137Z,89781.00
2022-12-25T08:08:54.103Z,89779.97
2022-12-25T08:11:21.100Z,89779.81
2022-12-25T08:13:47.984Z,89778.44
2022-12-25T08:16:14.869Z,89768.81
2022-12-25T08:18:41.793Z,89772.44
2022-12-25T08:21:14.578Z,89786.53
2022-12-25T08:23:46.911Z,89772.97
2022-12-25T08:26:20.285Z,89780.56
2022-12-25T08:28:48.504Z,89778.25
2022-12-25T08:31:23.324Z,89777.56
2022-12-25T08:33:53.274Z,89778.97
2022-12-25T08:36:20.760Z,89782.28
2022-12-25T08:38:48.013Z,89772.91
2022-12-25T08:41:15.825Z,89774.50
2022-12-25T08:43:43.706Z,89764.94
2022-12-25T08:46:13.607Z,89768.31
2022-12-25T08:48:45.370Z,89766.25
2022-12-25T08:51:13.971Z,89766.44
2022-12-25T08:53:45.523Z,89758.38
2022-12-25T08:56:16.057Z,89755.41
2022-12-25T08:58:46.373Z,89754.91
2022-12-25T09:01:13.849Z,89755.84
2022-12-25T09:03:43.983Z,89764.88
2022-12-25T09:06:15.600Z,89762.59
2022-12-25T09:08:48.777Z,89760.72
2022-12-25T09:11:18.930Z,89756.38
2022-12-25T09:13:49.074Z,89755.78
2022-12-25T09:16:21.573Z,89749.75
2022-12-25T09:18:49.094Z,89749.38
2022-12-25T09:21:16.928Z,89744.97
2022-12-25T09:23:44.184Z,89755.72
2022-12-25T09:26:15.050Z,89743.53
2022-12-25T09:28:48.513Z,89739.78
2022-12-25T09:31:18.407Z,89740.09
2022-12-25T09:33:45.534Z,89734.28
2022-12-25T09:36:12.764Z,89746.06
2022-12-25T09:38:42.558Z,89734.66
2022-12-25T09:41:16.191Z,89735.72
2022-12-25T09:43:50.339Z,89734.38
2022-12-25T09:46:25.191Z,89734.88
2022-12-25T09:49:14.018Z,89726.97
2022-12-25T09:51:43.969Z,89726.56
2022-12-25T09:54:22.451Z,89725.31
2022-12-25T09:56:49.358Z,89722.69
2022-12-25T09:59:23.177Z,89727.81
2022-12-25T10:02:23.465Z,89725.38
2022-12-25T10:05:05.592Z,89727.41
2022-12-25T10:07:58.447Z,89715.09
2022-12-25T10:10:46.692Z,89716.34
2022-12-25T10:13:28.635Z,89718.97
2022-12-25T10:16:30.113Z,89720.13
2022-12-25T10:19:06.802Z,89719.94
2022-12-25T10:21:34.120Z,89719.97
2022-12-25T10:24:20.016Z,89717.56
2022-12-25T10:26:48.840Z,89713.31
2022-12-25T10:29:18.581Z,89711.63
2022-12-25T10:31:55.122Z,89719.44
2022-12-25T10:34:23.370Z,89715.44
2022-12-25T10:36:51.199Z,89722.81
2022-12-25T10:39:28.956Z,89727.44
2022-12-25T10:42:10.781Z,89727.13
2022-12-25T10:44:37.942Z,89722.91
2022-12-25T10:47:05.572Z,89725.75
2022-12-25T10:49:36.946Z,89730.88
2022-12-25T10:52:18.491Z,89727.81
2022-12-25T10:54:45.420Z,89726.78
2022-12-25T10:57:18.364Z,89728.91
2022-12-25T10:59:47.616Z,89737.00
2022-12-25T11:02:19.451Z,89733.09
2022-12-25T11:04:46.690Z,89725.06
2022-12-25T11:07:15.639Z,89734.13
2022-12-25T11:09:53.944Z,89722.25
2022-12-25T11:12:35.129Z,89719.16
2022-12-25T11:15:06.937Z,89724.09
2022-12-25T11:17:36.147Z,89724.59
2022-12-25T11:20:03.283Z,89713.94
2022-12-25T11:22:30.436Z,89720.22
2022-12-25T11:24:57.473Z,89723.41
2022-12-25T11:27:27.848Z,89721.31
2022-12-25T11:30:05.838Z,89725.75
2022-12-25T11:32:52.147Z,89728.50
2022-12-25T11:35:19.263Z,89735.16
2022-12-25T11:37:49.707Z,89727.41
2022-12-25T11:40:20.970Z,89726.53
2022-12-25T11:42:55.414Z,89729.19
2022-12-25T11:45:33.515Z,89726.69
2022-12-25T11:48:10.022Z,89732.81
2022-12-25T11:50:42.394Z,89733.09
2022-12-25T11:53:29.299Z,89735.84
2022-12-25T11:56:07.329Z,89734.50
2022-12-25T11:58:41.188Z,89724.50
2022-12-25T12:01:43.879Z,89734.28
2022-12-25T12:04:27.435Z,89737.75
2022-12-25T12:06:56.453Z,89741.53
2022-12-25T12:09:41.732Z,89739.41
2022-12-25T12:13:03.128Z,89734.78
2022-12-25T12:15:41.747Z,89741.88
2022-12-25T12:18:18.913Z,89745.75
2022-12-25T12:20:46.637Z,89747.34
2022-12-25T12:23:17.188Z,89742.59
2022-12-25T12:25:45.239Z,89741.75
2022-12-25T12:28:26.442Z,89741.03
2022-12-25T12:31:00.396Z,89742.28
2022-12-25T12:33:32.454Z,89751.47
2022-12-25T12:36:01.556Z,89753.78
2022-12-25T12:38:29.298Z,89754.09
2022-12-25T12:41:02.022Z,89755.88
2022-12-25T12:43:36.507Z,89759.66
2022-12-25T12:46:08.658Z,89758.81
2022-12-25T12:48:41.948Z,89763.44
2022-12-25T12:51:34.431Z,89754.25
2022-12-25T12:54:26.797Z,89759.84
2022-12-25T12:57:02.425Z,89766.25
2022-12-25T12:59:38.533Z,89757.91
2022-12-25T13:02:47.932Z,89747.97
2022-12-25T13:05:33.966Z,89753.81
2022-12-25T13:08:31.729Z,89752.59
2022-12-25T13:11:20.561Z,89759.50
2022-12-25T13:13:50.022Z,89756.84
2022-12-25T13:16:29.202Z,89773.34
2022-12-25T13:18:56.939Z,89770.31
2022-12-25T13:21:31.376Z,89776.97
2022-12-25T13:23:59.526Z,89777.69
2022-12-25T13:26:27.251Z,89780.81
2022-12-25T13:28:54.364Z,89784.34
2022-12-25T13:31:24.358Z,89785.44
2022-12-25T13:34:17.125Z,89790.56
2022-12-25T13:36:44.261Z,89794.66
2022-12-25T13:39:17.322Z,89796.38
2022-12-25T13:41:53.117Z,89802.84
2022-12-25T13:44:24.161Z,89796.97
2022-12-25T13:46:51.069Z,89798.53
2022-12-25T13:49:24.248Z,89797.16
2022-12-25T13:51:51.748Z,89799.59
2022-12-25T13:54:19.130Z,89794.09
2022-12-25T13:56:52.254Z,89789.13
2022-12-25T13:59:22.141Z,89802.53
2022-12-25T14:01:50.434Z,89797.66
2022-12-25T14:04:21.796Z,89796.09
2022-12-25T14:06:49.901Z,89795.56
2022-12-25T14:09:17.384Z,89797.25
2022-12-25T14:11:49.466Z,89793.19
2022-12-25T14:14:23.060Z,89796.28
2022-12-25T14:16:52.075Z,89803.03
2022-12-25T14:19:33.996Z,89797.94
2022-12-25T14:22:12.378Z,89798.16
2022-12-25T14:24:40.666Z,89799.38
2022-12-25T14:27:25.848Z,89796.81
2022-12-25T14:29:56.895Z,89804.56
2022-12-25T14:32:30.638Z,89806.56
2022-12-25T14:35:00.650Z,89801.47
2022-12-25T14:37:31.259Z,89804.63
2022-12-25T14:40:24.612Z,89796.81
2022-12-25T14:43:00.395Z,89802.13
2022-12-25T14:45:30.235Z,89809.25
2022-12-25T14:48:03.701Z,89808.38
2022-12-25T14:50:30.497Z,89814.22
2022-12-25T14:52:59.130Z,89814.78
2022-12-25T14:55:30.622Z,89818.91
2022-12-25T14:58:04.036Z,89817.56
2022-12-25T15:00:34.606Z,89820.53
2022-12-25T15:03:03.718Z,89813.97
2022-12-25T15:05:37.254Z,89820.78
2022-12-25T15:08:10.057Z,89815.47
2022-12-25T15:13:26.253Z,89821.53
2022-12-25T15:16:01.611Z,89828.41
2022-12-25T15:18:34.613Z,89825.31
2022-12-25T15:21:01.647Z,89831.78
2022-12-25T15:23:28.825Z,89839.25
2022-12-25T15:25:55.862Z,89840.22
2022-12-25T15:28:22.684Z,89841.22
2022-12-25T15:30:50.074Z,89847.59
2022-12-25T15:33:18.661Z,89845.63
2022-12-25T15:35:45.872Z,89846.56
2022-12-25T15:38:13.736Z,89845.56
2022-12-25T15:40:41.696Z,89836.88
2022-12-25T15:43:38.996Z,89839.31
2022-12-25T15:45:59.275Z,89846.19
2022-12-25T15:48:26.124Z,89844.84
2022-12-25T15:50:53.040Z,89848.75
2022-12-25T15:53:19.876Z,89848.63
2022-12-25T15:55:46.736Z,89860.53
2022-12-25T15:58:13.618Z,89855.59
2022-12-25T16:00:40.460Z,89861.06
2022-12-25T16:03:07.625Z,89856.78
2022-12-25T16:05:34.730Z,89863.13
2022-12-25T16:08:01.636Z,89872.00
2022-12-25T16:10:33.427Z,89863.78
2022-12-25T16:13:03.544Z,89869.06
2022-12-25T16:15:30.466Z,89869.84
2022-12-25T16:17:57.375Z,89866.75
2022-12-25T16:20:24.258Z,89862.91
2022-12-25T16:22:51.153Z,89868.75
2022-12-25T16:25:19.489Z,89867.03
2022-12-25T16:27:46.922Z,89869.84
2022-12-25T16:30:16.823Z,89866.47
2022-12-25T16:32:44.604Z,89871.00
2022-12-25T16:35:12.341Z,89865.03
2022-12-25T16:37:39.668Z,89860.81
2022-12-25T16:40:10.538Z,89864.53
2022-12-25T16:42:38.578Z,89856.03
2022-12-25T16:45:06.484Z,89858.88
2022-12-25T16:47:33.410Z,89863.94
2022-12-25T16:50:00.504Z,89860.16
2022-12-25T16:52:27.540Z,89870.50
2022-12-25T16:54:54.472Z,89858.28
2022-12-25T16:57:21.259Z,89859.78
2022-12-25T16:59:48.171Z,89866.69
2022-12-25T17:02:17.560Z,89864.38
2022-12-25T17:04:45.767Z,89861.78
2022-12-25T17:07:14.212Z,89862.22
2022-12-25T17:09:44.327Z,89869.25
2022-12-25T17:12:11.647Z,89871.13
2022-12-25T17:14:38.632Z,89865.16
2022-12-25T17:17:05.759Z,89869.31
2022-12-25T17:19:32.640Z,89879.72
2022-12-25T17:21:59.677Z,89859.63
2022-12-25T17:24:27.568Z,89857.47
2022-12-25T17:26:54.675Z,89857.16
2022-12-25T17:29:22.567Z,89859.34
2022-12-25T17:31:50.227Z,89859.13
2022-12-25T17:34:17.198Z,89856.50
2022-12-25T17:36:44.119Z,89859.28
2022-12-25T17:39:11.548Z,89856.16
2022-12-25T17:41:38.515Z,89858.84
2022-12-25T17:44:05.733Z,89856.84
2022-12-25T17:46:32.902Z,89851.28
2022-12-25T17:49:01.022Z,89854.88
2022-12-25T17:51:30.467Z,89860.28
2022-12-25T17:54:00.229Z,89850.53
2022-12-25T17:56:27.136Z,89851.81
2022-12-25T17:58:57.596Z,89845.88
2022-12-25T18:01:25.827Z,89849.06
2022-12-25T18:03:53.751Z,89853.66
2022-12-25T18:06:22.907Z,89843.44
2022-12-25T18:08:57.327Z,89852.38
2022-12-25T18:11:27.668Z,89860.44
2022-12-25T18:13:55.831Z,89853.41
2022-12-25T18:16:24.886Z,89846.91
2022-12-25T18:18:53.082Z,89856.47
2022-12-25T18:21:22.033Z,89852.97
2022-12-25T18:23:49.902Z,89848.44
2022-12-25T18:26:17.527Z,89854.03
2022-12-25T18:28:44.407Z,89858.69
2022-12-25T18:31:15.967Z,89849.75
2022-12-25T18:33:43.388Z,89850.91
2022-12-25T18:36:15.475Z,89842.88
2022-12-25T18:38:43.347Z,89853.34
2022-12-25T18:41:11.167Z,89849.91
2022-12-25T18:43:52.456Z,89841.88
2022-12-25T18:46:26.711Z,89842.50
2022-12-25T18:48:56.608Z,89857.34
2022-12-25T18:51:23.780Z,89848.38
2022-12-25T18:53:50.970Z,89853.44
2022-12-25T18:56:18.573Z,89857.94
2022-12-25T18:58:47.026Z,89849.75
2022-12-25T19:01:19.703Z,89847.59
2022-12-25T19:03:47.077Z,89854.66
2022-12-25T19:06:22.335Z,89846.88
2022-12-25T19:08:49.434Z,89861.75
2022-12-25T19:11:17.156Z,89862.50
2022-12-25T19:13:44.281Z,89854.38
2022-12-25T19:16:11.331Z,89855.38
2022-12-25T19:18:39.004Z,89861.69
2022-12-25T19:21:07.740Z,89849.03
2022-12-25T19:23:44.036Z,89869.97
2022-12-25T19:26:12.354Z,89867.34
2022-12-25T19:28:40.097Z,89864.94
2022-12-25T19:31:08.695Z,89874.81
2022-12-25T19:33:37.611Z,89870.47
2022-12-25T19:36:14.341Z,89871.13
2022-12-25T19:38:42.092Z,89871.69
2022-12-25T19:41:11.623Z,89871.63
2022-12-25T19:43:40.707Z,89877.84
2022-12-25T19:46:10.828Z,89873.88
2022-12-25T19:48:37.779Z,89871.34
2022-12-25T19:51:04.757Z,89879.66
2022-12-25T19:53:31.713Z,89879.28
2022-12-25T19:56:02.091Z,89885.78
2022-12-25T19:58:28.950Z,89885.88
2022-12-25T20:01:05.531Z,89883.63
2022-12-25T20:03:34.976Z,89882.59
2022-12-25T20:06:06.244Z,89885.63
2022-12-25T20:08:33.873Z,89883.91
2022-12-25T20:11:00.839Z,89889.19
2022-12-25T20:13:27.693Z,89885.97
2022-12-25T20:16:00.434Z,89895.59
2022-12-25T20:18:27.974Z,89898.88
2022-12-25T20:21:21.786Z,89896.44
2022-12-25T20:23:51.203Z,89892.88
2022-12-25T20:26:20.129Z,89901.84
2022-12-25T20:28:47.515Z,89897.22
2022-12-25T20:31:19.029Z,89895.91
2022-12-25T20:33:46.353Z,89890.34
2022-12-25T20:36:13.439Z,89900.75
2022-12-25T20:38:40.812Z,89898.06
2022-12-25T20:41:29.969Z,89903.97
2022-12-25T20:43:57.616Z,89898.22
2022-12-25T20:46:25.780Z,89899.13
2022-12-25T20:48:53.213Z,89888.13
2022-12-25T20:51:23.275Z,89899.03
2022-12-25T20:53:53.641Z,89897.25
2022-12-25T20:56:24.757Z,89904.78
2022-12-25T20:58:59.745Z,89905.69
2022-12-25T21:01:28.538Z,89903.97
2022-12-25T21:03:55.685Z,89903.16
2022-12-25T21:06:23.485Z,89905.19
2022-12-25T21:08:50.809Z,89914.81
2022-12-25T21:11:17.923Z,89916.13
2022-12-25T21:13:45.558Z,89910.63
2022-12-25T21:16:15.687Z,89909.97
2022-12-25T21:18:42.775Z,89915.38
2022-12-25T21:21:11.182Z,89913.78
2022-12-25T21:23:39.527Z,89929.34
2022-12-25T21:26:32.848Z,89920.63
2022-12-25T21:29:02.193Z,89917.50
2022-12-25T21:31:29.984Z,89911.19
2022-12-25T21:33:57.377Z,89913.81
2022-12-25T21:36:32.548Z,89903.72
2022-12-25T21:39:06.455Z,89908.81
2022-12-25T21:41:35.753Z,89906.09
2022-12-25T21:44:03.076Z,89904.78
2022-12-25T21:46:30.762Z,89915.63
2022-12-25T21:49:06.809Z,89908.97
2022-12-25T21:51:34.648Z,89912.84
2022-12-25T21:54:02.262Z,89912.53
2022-12-25T21:56:39.848Z,89918.41
2022-12-25T21:59:12.157Z,89911.38
2022-12-25T22:01:39.133Z,89914.41
2022-12-25T22:04:08.465Z,89916.94
2022-12-25T22:06:35.879Z,89917.78
2022-12-25T22:09:05.113Z,89928.59
2022-12-25T22:11:35.331Z,89921.78
2022-12-25T22:14:02.338Z,89925.00
2022-12-25T22:16:29.273Z,89924.06
2022-12-25T22:18:56.272Z,89914.97
2022-12-25T22:21:23.459Z,89907.97
2022-12-25T22:23:50.322Z,89921.28
2022-12-25T22:26:20.770Z,89920.34
2022-12-25T22:28:47.999Z,89922.97
2022-12-25T22:31:15.084Z,89925.25
2022-12-25T22:33:41.991Z,89917.84
2022-12-25T22:36:09.587Z,89917.50
2022-12-25T22:38:36.375Z,89922.13
2022-12-25T22:41:06.612Z,89929.34
2022-12-25T22:44:06.813Z,89933.22
2022-12-25T22:46:20.611Z,89936.47
2022-12-25T22:48:47.766Z,89927.28
2022-12-25T22:51:14.780Z,89932.69
2022-12-25T22:53:41.977Z,89930.81
2022-12-25T22:56:09.614Z,89931.25
2022-12-25T22:58:36.937Z,89941.50
2022-12-25T23:01:04.542Z,89935.34
2022-12-25T23:03:31.460Z,89945.88
2022-12-25T23:05:58.443Z,89937.41
2022-12-25T23:08:25.621Z,89935.50
2022-12-25T23:10:52.881Z,89934.69
2022-12-25T23:13:19.925Z,89937.50
2022-12-25T23:15:46.989Z,89938.81
2022-12-25T23:18:14.084Z,89947.44
2022-12-25T23:20:41.185Z,89945.88
2022-12-25T23:23:14.609Z,89952.13
2022-12-25T23:25:41.833Z,89939.97
2022-12-25T23:28:08.790Z,89949.00
2022-12-25T23:30:38.778Z,89957.81
2022-12-25T23:33:05.953Z,89949.97
2022-12-25T23:35:33.001Z,89945.09
2022-12-25T23:37:59.866Z,89948.59
2022-12-25T23:40:26.802Z,89949.22
2022-12-25T23:42:54.017Z,89948.25
2022-12-25T23:45:20.986Z,89953.94
2022-12-25T23:47:48.010Z,89960.50
2022-12-25T23:50:15.029Z,89954.06
2022-12-25T23:52:42.032Z,89955.59
2022-12-25T23:55:09.368Z,89960.22
2022-12-25T23:57:36.364Z,89960.88
